createdAt,value
2019-04-26T00:02:45.535Z,99671.28
2019-04-26T00:05:12.992Z,99667.53
2019-04-26T00:07:43.744Z,99652.64
2019-04-26T00:10:31.169Z,99655.08
2019-04-26T00:13:08.004Z,99664.06
2019-04-26T00:15:49.092Z,99668.48
2019-04-26T00:18:16.746Z,99663.81
2019-04-26T00:20:44.459Z,99672.33
2019-04-26T00:23:12.059Z,99673.00
2019-04-26T00:25:39.233Z,99689.87
2019-04-26T00:28:06.409Z,99708.26
2019-04-26T00:30:33.430Z,99714.50
2019-04-26T00:33:00.925Z,99701.28
2019-04-26T00:35:29.148Z,99677.92
2019-04-26T00:37:56.355Z,99676.18
2019-04-26T00:40:23.519Z,99693.42
2019-04-26T00:42:51.557Z,99709.77
2019-04-26T00:45:20.989Z,99709.74
2019-04-26T00:47:49.827Z,99717.63
2019-04-26T00:50:17.198Z,99719.53
2019-04-26T00:52:45.128Z,99718.91
2019-04-26T00:55:14.119Z,99712.59
2019-04-26T00:57:41.545Z,99723.46
2019-04-26T01:00:10.317Z,99724.63
2019-04-26T01:02:42.999Z,99724.38
2019-04-26T01:05:10.326Z,99721.75
2019-04-26T01:07:37.874Z,99728.95
2019-04-26T01:10:06.692Z,99709.50
2019-04-26T01:12:34.060Z,99703.19
2019-04-26T01:15:01.077Z,99717.48
2019-04-26T01:17:28.201Z,99713.81
2019-04-26T01:19:56.262Z,99707.70
2019-04-26T01:22:27.643Z,99728.26
2019-04-26T01:24:55.609Z,99735.13
2019-04-26T01:27:26.396Z,99731.75
2019-04-26T01:29:57.482Z,99723.68
2019-04-26T01:32:26.545Z,99727.62
2019-04-26T01:34:55.507Z,99729.53
2019-04-26T01:37:26.687Z,99733.05
2019-04-26T01:40:00.103Z,99726.56
2019-04-26T01:42:50.120Z,99718.91
2019-04-26T01:45:26.152Z,99729.06
2019-04-26T01:47:57.033Z,99734.84
2019-04-26T01:50:29.457Z,99740.95
2019-04-26T01:52:58.323Z,99741.91
2019-04-26T01:55:29.177Z,99745.00
2019-04-26T01:57:59.165Z,99747.02
2019-04-26T02:00:52.794Z,99747.59
2019-04-26T02:03:24.373Z,99746.34
2019-04-26T02:05:52.824Z,99745.30
2019-04-26T02:08:19.886Z,99738.52
2019-04-26T02:10:47.895Z,99744.57
2019-04-26T02:13:16.124Z,99766.55
2019-04-26T02:15:45.738Z,99782.81
2019-04-26T02:18:14.994Z,99791.25
2019-04-26T02:20:58.615Z,99780.28
2019-04-26T02:23:34.323Z,99787.58
2019-04-26T02:26:19.934Z,99789.21
2019-04-26T02:28:48.623Z,99789.67
2019-04-26T02:31:15.873Z,99790.98
2019-04-26T02:33:43.157Z,99796.33
2019-04-26T02:36:10.390Z,99793.69
2019-04-26T02:38:37.741Z,99786.09
2019-04-26T02:41:05.154Z,99795.00
2019-04-26T02:43:35.836Z,99807.98
2019-04-26T02:46:20.472Z,99810.37
2019-04-26T02:49:19.274Z,99799.45
2019-04-26T02:52:08.271Z,99794.79
2019-04-26T02:54:44.482Z,99790.87
2019-04-26T02:57:16.455Z,99790.25
2019-04-26T02:59:47.149Z,99800.88
2019-04-26T03:02:24.810Z,99799.33
2019-04-26T03:04:56.695Z,99787.86
2019-04-26T03:08:10.010Z,99788.39
2019-04-26T03:10:44.174Z,99797.97
2019-04-26T03:13:32.179Z,99792.61
2019-04-26T03:16:25.189Z,99792.25
2019-04-26T03:19:08.871Z,99797.88
2019-04-26T03:21:55.343Z,99794.75
2019-04-26T03:24:32.971Z,99794.77
2019-04-26T03:27:43.591Z,99794.59
2019-04-26T03:30:24.953Z,99774.86
2019-04-26T03:33:39.861Z,99770.41
2019-04-26T03:36:42.099Z,99776.77
2019-04-26T03:39:30.304Z,99789.89
2019-04-26T03:42:21.545Z,99780.48
2019-04-26T03:45:10.272Z,99779.89
2019-04-26T03:47:45.854Z,99778.73
2019-04-26T03:50:18.713Z,99783.94
2019-04-26T03:53:21.942Z,99791.52
2019-04-26T03:56:51.190Z,99789.61
2019-04-26T03:59:42.708Z,99794.55
2019-04-26T04:02:31.476Z,99794.56
2019-04-26T04:05:14.790Z,99801.77
2019-04-26T04:07:47.864Z,99807.72
2019-04-26T04:10:18.089Z,99804.89
2019-04-26T04:13:09.895Z,99811.54
2019-04-26T04:15:44.693Z,99809.63
2019-04-26T04:18:20.420Z,99807.18
2019-04-26T04:21:18.494Z,99816.33
2019-04-26T04:24:04.257Z,99817.79
2019-04-26T04:27:02.923Z,99820.98
2019-04-26T04:30:25.663Z,99819.81
2019-04-26T04:33:18.244Z,99821.91
2019-04-26T04:35:52.912Z,99828.41
2019-04-26T04:39:11.307Z,99826.73
2019-04-26T04:41:45.062Z,99828.73
2019-04-26T04:44:36.168Z,99821.84
2019-04-26T04:47:32.344Z,99820.41
2019-04-26T04:50:49.259Z,99819.63
2019-04-26T04:53:41.441Z,99827.63
2019-04-26T04:56:53.432Z,99840.70
2019-04-26T04:59:28.662Z,99847.17
2019-04-26T05:02:32.789Z,99857.97
2019-04-26T05:05:22.220Z,99866.84
2019-04-26T05:08:17.469Z,99863.80
2019-04-26T05:11:01.878Z,99860.25
2019-04-26T05:13:43.607Z,99854.27
2019-04-26T05:16:51.207Z,99857.46
2019-04-26T05:19:44.233Z,99860.40
2019-04-26T05:22:37.755Z,99862.57
2019-04-26T05:26:08.199Z,99868.91
2019-04-26T05:29:01.578Z,99880.91
2019-04-26T05:31:42.560Z,99884.94
2019-04-26T05:34:53.161Z,99875.14
2019-04-26T05:37:42.444Z,99872.37
2019-04-26T05:40:35.981Z,99875.34
2019-04-26T05:43:51.888Z,99883.02
2019-04-26T05:47:06.121Z,99887.55
2019-04-26T05:50:23.307Z,99883.78
2019-04-26T05:53:09.899Z,99895.42
2019-04-26T05:56:03.928Z,99917.13
2019-04-26T05:58:51.177Z,99934.52
2019-04-26T06:02:07.144Z,99941.34
2019-04-26T06:05:07.298Z,99954.80
2019-04-26T06:08:31.727Z,99958.31
2019-04-26T06:11:07.305Z,99960.34
2019-04-26T06:14:46.664Z,99970.31
2019-04-26T06:18:15.210Z,99972.09
2019-04-26T06:20:49.417Z,99964.94
2019-04-26T06:24:09.768Z,99961.10
2019-04-26T06:27:09.312Z,99961.80
2019-04-26T06:29:35.278Z,99965.45
2019-04-26T06:32:16.160Z,99961.58
2019-04-26T06:35:22.418Z,99965.63
2019-04-26T06:38:55.984Z,99955.95
2019-04-26T06:42:05.684Z,99943.30
2019-04-26T06:45:36.735Z,99950.06
2019-04-26T06:49:01.979Z,99962.58
2019-04-26T06:52:05.442Z,99965.70
2019-04-26T06:55:05.411Z,99969.98
2019-04-26T06:58:14.880Z,99964.43
2019-04-26T07:01:03.830Z,99967.52
2019-04-26T07:03:58.338Z,99968.86
2019-04-26T07:06:36.788Z,99985.07
2019-04-26T07:09:13.266Z,99978.20
2019-04-26T07:12:21.311Z,99980.81
2019-04-26T07:15:42.693Z,99983.33
2019-04-26T07:18:35.559Z,99984.97
2019-04-26T07:21:34.636Z,99993.01
2019-04-26T07:24:56.632Z,99997.28
2019-04-26T07:27:49.689Z,99997.48
2019-04-26T07:30:45.637Z,100003.45
2019-04-26T07:33:35.067Z,100014.56
2019-04-26T07:36:21.224Z,100023.08
2019-04-26T07:39:19.959Z,100025.70
2019-04-26T07:42:36.124Z,100027.89
2019-04-26T07:45:41.252Z,100021.22
2019-04-26T07:48:33.895Z,100014.66
2019-04-26T07:51:54.848Z,100021.55
2019-04-26T07:54:53.179Z,100032.11
2019-04-26T07:58:03.549Z,100027.48
2019-04-26T08:00:45.136Z,100022.63
2019-04-26T08:03:23.674Z,100005.34
2019-04-26T08:06:11.564Z,100000.34
2019-04-26T08:08:53.063Z,100000.20
2019-04-26T08:11:29.820Z,100006.09
2019-04-26T08:14:10.686Z,100018.97
2019-04-26T08:16:58.573Z,100014.98
2019-04-26T08:19:29.513Z,100022.74
2019-04-26T08:22:11.480Z,100017.61
2019-04-26T08:24:31.015Z,100010.07
2019-04-26T08:27:18.899Z,100033.62
2019-04-26T08:29:42.080Z,100047.10
2019-04-26T08:32:23.005Z,100064.05
2019-04-26T08:35:02.333Z,100069.00
2019-04-26T08:37:44.369Z,100064.20
2019-04-26T08:40:16.440Z,100064.23
2019-04-26T08:42:53.330Z,100064.16
2019-04-26T08:45:33.514Z,100054.37
2019-04-26T08:48:22.356Z,100055.89
2019-04-26T08:50:50.023Z,100065.08
2019-04-26T08:53:17.841Z,100071.97
2019-04-26T08:55:49.958Z,100075.52
2019-04-26T08:58:21.006Z,100085.56
2019-04-26T09:01:11.316Z,100092.25
2019-04-26T09:03:45.871Z,100092.12
2019-04-26T09:06:35.620Z,100096.21
2019-04-26T09:09:14.319Z,100093.64
2019-04-26T09:11:46.135Z,100090.60
2019-04-26T09:14:13.984Z,100091.51
2019-04-26T09:16:50.162Z,100096.00
2019-04-26T09:19:12.247Z,100097.68
2019-04-26T09:21:47.402Z,100101.09
2019-04-26T09:24:32.951Z,100106.78
2019-04-26T09:27:08.652Z,100111.09
2019-04-26T09:29:54.579Z,100104.68
2019-04-26T09:32:33.213Z,100106.41
2019-04-26T09:35:00.404Z,100114.16
2019-04-26T09:37:28.552Z,100116.47
2019-04-26T09:39:56.013Z,100117.17
2019-04-26T09:42:39.414Z,100115.09
2019-04-26T09:45:24.806Z,100121.13
2019-04-26T09:47:58.164Z,100118.37
2019-04-26T09:50:59.739Z,100119.06
2019-04-26T09:53:39.518Z,100113.92
2019-04-26T09:56:07.554Z,100112.67
2019-04-26T09:58:43.065Z,100107.43
2019-04-26T10:01:11.876Z,100106.55
2019-04-26T10:03:41.810Z,100119.25
2019-04-26T10:06:09.774Z,100122.59
2019-04-26T10:08:43.373Z,100121.72
2019-04-26T10:11:15.054Z,100126.93
2019-04-26T10:13:51.251Z,100128.23
2019-04-26T10:16:28.776Z,100139.02
2019-04-26T10:19:02.269Z,100134.77
2019-04-26T10:21:31.566Z,100145.80
2019-04-26T10:24:00.887Z,100143.81
2019-04-26T10:26:29.830Z,100143.38
2019-04-26T10:28:57.340Z,100146.88
2019-04-26T10:31:24.431Z,100140.38
2019-04-26T10:33:55.147Z,100149.91
2019-04-26T10:36:26.277Z,100142.95
2019-04-26T10:38:54.470Z,100146.42
2019-04-26T10:41:21.599Z,100139.72
2019-04-26T10:43:49.603Z,100135.37
2019-04-26T10:46:16.841Z,100135.97
2019-04-26T10:48:45.550Z,100131.70
2019-04-26T10:51:18.929Z,100130.59
2019-04-26T10:54:06.130Z,100128.89
2019-04-26T10:56:42.094Z,100131.89
2019-04-26T10:59:31.673Z,100133.34
2019-04-26T11:01:58.718Z,100127.82
2019-04-26T11:04:27.477Z,100122.01
2019-04-26T11:06:54.577Z,100116.34
2019-04-26T11:09:21.747Z,100125.23
2019-04-26T11:11:50.503Z,100130.81
2019-04-26T11:14:18.285Z,100124.09
2019-04-26T11:16:52.933Z,100129.97
2019-04-26T11:19:35.425Z,100134.52
2019-04-26T11:22:28.354Z,100127.45
2019-04-26T11:24:53.787Z,100127.09
2019-04-26T11:27:36.231Z,100125.44
2019-04-26T11:30:12.843Z,100127.75
2019-04-26T11:33:00.040Z,100124.92
2019-04-26T11:35:40.331Z,100127.42
2019-04-26T11:38:35.683Z,100128.72
2019-04-26T11:41:10.988Z,100122.37
2019-04-26T11:43:58.387Z,100130.19
2019-04-26T11:46:44.941Z,100125.81
2019-04-26T11:49:23.534Z,100132.07
2019-04-26T11:52:03.170Z,100136.25
2019-04-26T11:54:55.156Z,100133.77
2019-04-26T11:57:50.632Z,100131.70
2019-04-26T12:00:33.561Z,100128.14
2019-04-26T12:03:11.664Z,100131.90
2019-04-26T12:06:00.476Z,100131.38
2019-04-26T12:09:09.758Z,100136.08
2019-04-26T12:11:49.029Z,100146.56
2019-04-26T12:14:19.673Z,100147.53
2019-04-26T12:16:48.060Z,100146.14
2019-04-26T12:19:08.032Z,100155.45
2019-04-26T12:21:37.237Z,100158.09
2019-04-26T12:24:04.672Z,100162.37
2019-04-26T12:26:42.535Z,100157.69
2019-04-26T12:29:06.025Z,100159.91
2019-04-26T12:31:35.992Z,100163.83
2019-04-26T12:34:03.052Z,100165.63
2019-04-26T12:36:30.195Z,100173.86
2019-04-26T12:38:58.296Z,100178.98
2019-04-26T12:41:39.798Z,100184.84
2019-04-26T12:43:59.544Z,100177.75
2019-04-26T12:46:38.208Z,100173.70
2019-04-26T12:49:08.898Z,100177.39
2019-04-26T12:51:38.271Z,100169.12
2019-04-26T12:54:08.211Z,100158.69
2019-04-26T12:56:35.810Z,100163.16
2019-04-26T12:59:04.467Z,100168.75
2019-04-26T13:01:31.842Z,100167.92
2019-04-26T13:04:03.653Z,100157.35
2019-04-26T13:06:35.351Z,100163.89
2019-04-26T13:09:07.971Z,100172.30
2019-04-26T13:11:59.543Z,100176.92
2019-04-26T13:14:48.358Z,100171.75
2019-04-26T13:17:24.618Z,100176.12
2019-04-26T13:19:55.432Z,100167.69
2019-04-26T13:22:23.054Z,100159.87
2019-04-26T13:24:53.862Z,100167.94
2019-04-26T13:27:21.015Z,100165.08
2019-04-26T13:30:02.546Z,100162.58
2019-04-26T13:32:26.856Z,100154.33
2019-04-26T13:34:53.915Z,100154.09
2019-04-26T13:37:22.219Z,100160.72
2019-04-26T13:39:55.315Z,100161.00
2019-04-26T13:42:22.875Z,100160.72
2019-04-26T13:45:24.718Z,100168.59
2019-04-26T13:48:14.653Z,100156.62
2019-04-26T13:50:47.529Z,100163.93
2019-04-26T13:53:14.610Z,100170.20
2019-04-26T13:55:41.973Z,100170.84
2019-04-26T13:58:09.212Z,100173.84
2019-04-26T14:00:43.415Z,100178.45
2019-04-26T14:03:09.866Z,100171.42
2019-04-26T14:05:39.864Z,100174.22
2019-04-26T14:08:07.145Z,100169.23
2019-04-26T14:10:34.330Z,100174.95
2019-04-26T14:13:02.530Z,100165.00
2019-04-26T14:15:29.681Z,100165.30
2019-04-26T14:18:00.218Z,100154.23
2019-04-26T14:20:26.751Z,100159.47
2019-04-26T14:23:11.396Z,100165.80
2019-04-26T14:26:01.138Z,100172.70
2019-04-26T14:28:27.707Z,100173.33
2019-04-26T14:30:56.609Z,100175.76
2019-04-26T14:33:27.089Z,100178.92
2019-04-26T14:35:52.800Z,100186.88
2019-04-26T14:38:27.702Z,100183.16
2019-04-26T14:41:02.785Z,100173.64
2019-04-26T14:43:23.459Z,100171.27
2019-04-26T14:45:56.004Z,100172.28
2019-04-26T14:48:20.949Z,100169.13
2019-04-26T14:50:53.257Z,100162.41
2019-04-26T14:53:20.128Z,100177.09
2019-04-26T14:55:51.355Z,100186.69
2019-04-26T14:58:23.836Z,100188.78
2019-04-26T15:00:58.558Z,100185.27
2019-04-26T15:03:30.981Z,100182.59
2019-04-26T15:06:02.902Z,100191.64
2019-04-26T15:08:32.146Z,100191.70
2019-04-26T15:11:01.278Z,100187.71
2019-04-26T15:13:28.076Z,100192.33
2019-04-26T15:15:55.603Z,100184.61
2019-04-26T15:18:23.660Z,100183.34
2019-04-26T15:20:57.051Z,100184.27
2019-04-26T15:23:23.856Z,100185.70
2019-04-26T15:25:52.874Z,100181.48
2019-04-26T15:28:22.030Z,100187.35
2019-04-26T15:30:49.319Z,100188.47
2019-04-26T15:33:16.436Z,100184.09
2019-04-26T15:35:46.865Z,100175.06
2019-04-26T15:38:16.251Z,100167.45
2019-04-26T15:41:05.460Z,100158.87
2019-04-26T15:43:46.816Z,100172.02
2019-04-26T15:46:20.436Z,100176.21
2019-04-26T15:49:13.120Z,100171.78
2019-04-26T15:51:42.410Z,100166.16
2019-04-26T15:54:09.734Z,100163.32
2019-04-26T15:56:36.959Z,100161.33
2019-04-26T15:59:04.386Z,100166.23
2019-04-26T16:01:32.499Z,100171.73
2019-04-26T16:03:59.864Z,100171.21
2019-04-26T16:06:26.941Z,100175.36
2019-04-26T16:08:53.984Z,100177.23
2019-04-26T16:11:21.056Z,100182.92
2019-04-26T16:13:54.249Z,100184.31
2019-04-26T16:16:20.514Z,100188.70
2019-04-26T16:18:49.852Z,100186.25
2019-04-26T16:21:17.892Z,100181.19
2019-04-26T16:23:50.947Z,100174.78
2019-04-26T16:26:15.376Z,100179.72
2019-04-26T16:28:49.639Z,100182.27
2019-04-26T16:31:46.094Z,100187.61
2019-04-26T16:34:15.313Z,100190.38
2019-04-26T16:36:45.268Z,100180.28
2019-04-26T16:39:14.554Z,100181.96
2019-04-26T16:41:42.178Z,100179.36
2019-04-26T16:44:10.511Z,100187.67
2019-04-26T16:46:37.620Z,100177.81
2019-04-26T16:49:11.589Z,100187.67
2019-04-26T16:51:37.967Z,100186.92
2019-04-26T16:54:10.810Z,100186.90
2019-04-26T16:56:38.582Z,100187.67
2019-04-26T16:59:06.812Z,100185.05
2019-04-26T17:01:38.152Z,100187.81
2019-04-26T17:04:04.694Z,100186.45
2019-04-26T17:06:33.199Z,100191.49
2019-04-26T17:09:01.583Z,100197.73
2019-04-26T17:11:36.231Z,100196.80
2019-04-26T17:14:04.372Z,100191.00
2019-04-26T17:16:29.691Z,100191.42
2019-04-26T17:18:59.528Z,100191.84
2019-04-26T17:21:32.824Z,100194.91
2019-04-26T17:24:22.428Z,100192.11
2019-04-26T17:26:55.647Z,100196.20
2019-04-26T17:29:22.879Z,100201.07
2019-04-26T17:31:50.002Z,100196.30
2019-04-26T17:34:22.533Z,100204.73
2019-04-26T17:36:50.547Z,100199.61
2019-04-26T17:39:18.288Z,100200.09
2019-04-26T17:41:50.787Z,100199.63
2019-04-26T17:44:21.821Z,100210.04
2019-04-26T17:46:48.835Z,100204.23
2019-04-26T17:49:16.228Z,100208.84
2019-04-26T17:51:44.415Z,100203.13
2019-04-26T17:54:26.586Z,100204.19
2019-04-26T17:56:42.051Z,100198.47
2019-04-26T17:59:30.274Z,100209.83
2019-04-26T18:01:47.083Z,100206.53
2019-04-26T18:04:11.276Z,100206.37
2019-04-26T18:06:40.404Z,100216.20
2019-04-26T18:09:13.245Z,100217.59
2019-04-26T18:11:44.193Z,100224.82
2019-04-26T18:14:21.076Z,100231.57
2019-04-26T18:16:47.119Z,100232.88
2019-04-26T18:19:36.560Z,100231.33
2019-04-26T18:22:28.354Z,100234.39
2019-04-26T18:24:55.555Z,100236.24
2019-04-26T18:27:23.995Z,100232.85
2019-04-26T18:29:53.155Z,100237.39
2019-04-26T18:32:24.518Z,100237.91
2019-04-26T18:34:53.669Z,100239.88
2019-04-26T18:37:20.826Z,100254.20
2019-04-26T18:39:47.854Z,100250.29
2019-04-26T18:42:15.091Z,100249.17
2019-04-26T18:44:47.973Z,100250.51
2019-04-26T18:47:32.092Z,100255.22
2019-04-26T18:49:59.367Z,100257.15
2019-04-26T18:52:30.487Z,100259.38
2019-04-26T18:55:03.916Z,100258.11
2019-04-26T18:57:33.962Z,100264.44
2019-04-26T19:00:07.064Z,100274.17
2019-04-26T19:02:36.048Z,100270.42
2019-04-26T19:05:13.267Z,100279.38
2019-04-26T19:07:46.205Z,100281.15
2019-04-26T19:10:16.056Z,100280.59
2019-04-26T19:12:47.860Z,100283.33
2019-04-26T19:15:26.004Z,100280.84
2019-04-26T19:18:11.739Z,100279.55
2019-04-26T19:20:54.269Z,100285.42
2019-04-26T19:23:22.802Z,100283.91
2019-04-26T19:25:55.316Z,100279.16
2019-04-26T19:28:25.090Z,100286.03
2019-04-26T19:30:54.875Z,100280.64
2019-04-26T19:33:23.574Z,100285.41
2019-04-26T19:35:53.966Z,100287.49
2019-04-26T19:38:26.765Z,100285.46
2019-04-26T19:41:03.560Z,100273.70
2019-04-26T19:43:35.233Z,100279.74
2019-04-26T19:46:21.733Z,100279.03
2019-04-26T19:49:18.615Z,100282.05
2019-04-26T19:52:28.523Z,100275.49
2019-04-26T19:55:25.734Z,100269.91
2019-04-26T19:57:59.054Z,100275.88
2019-04-26T20:00:26.966Z,100277.45
2019-04-26T20:02:54.164Z,100270.10
2019-04-26T20:05:26.799Z,100266.59
2019-04-26T20:08:05.989Z,100270.86
2019-04-26T20:10:45.369Z,100269.27
2019-04-26T20:13:34.137Z,100274.51
2019-04-26T20:16:02.621Z,100271.89
2019-04-26T20:21:34.329Z,100273.19
2019-04-26T20:24:02.320Z,100274.42
2019-04-26T20:26:31.484Z,100276.08
2019-04-26T20:29:01.878Z,100275.09
2019-04-26T20:31:47.387Z,100279.42
2019-04-26T20:34:18.182Z,100276.25
2019-04-26T20:36:48.467Z,100281.30
2019-04-26T20:39:20.860Z,100288.95
2019-04-26T20:42:00.972Z,100298.61
2019-04-26T20:44:28.547Z,100296.92
2019-04-26T20:46:55.997Z,100305.56
2019-04-26T20:49:32.143Z,100305.39
2019-04-26T20:52:09.127Z,100312.98
2019-04-26T20:54:37.703Z,100320.92
2019-04-26T20:57:08.799Z,100330.63
2019-04-26T20:59:38.256Z,100325.81
2019-04-26T21:02:08.090Z,100331.19
2019-04-26T21:04:38.297Z,100338.58
2019-04-26T21:07:06.765Z,100344.20
2019-04-26T21:09:36.362Z,100357.05
2019-04-26T21:12:17.015Z,100367.48
2019-04-26T21:14:44.613Z,100353.64
2019-04-26T21:17:11.542Z,100351.97
2019-04-26T21:19:38.983Z,100342.52
2019-04-26T21:22:07.564Z,100332.28
2019-04-26T21:24:41.316Z,100328.30
2019-04-26T21:27:31.774Z,100330.04
2019-04-26T21:30:33.697Z,100321.66
2019-04-26T21:33:28.599Z,100319.02
2019-04-26T21:36:18.494Z,100308.41
2019-04-26T21:38:53.479Z,100314.51
2019-04-26T21:41:23.695Z,100325.48
2019-04-26T21:43:54.847Z,100329.63
2019-04-26T21:46:23.653Z,100326.09
2019-04-26T21:48:57.425Z,100326.91
2019-04-26T21:51:27.053Z,100319.03
2019-04-26T21:53:57.655Z,100319.65
2019-04-26T21:56:33.735Z,100325.34
2019-04-26T21:59:04.418Z,100319.50
2019-04-26T22:01:33.090Z,100314.17
2019-04-26T22:04:05.868Z,100313.92
2019-04-26T22:06:34.829Z,100319.89
2019-04-26T22:09:32.442Z,100310.36
2019-04-26T22:11:57.390Z,100312.30
2019-04-26T22:14:29.873Z,100316.27
2019-04-26T22:17:16.255Z,100317.36
2019-04-26T22:19:50.346Z,100322.17
2019-04-26T22:22:41.490Z,100314.89
2019-04-26T22:25:13.269Z,100316.08
2019-04-26T22:27:40.416Z,100313.60
2019-04-26T22:30:16.206Z,100311.28
2019-04-26T22:32:43.405Z,100313.33
2019-04-26T22:35:19.831Z,100311.19
2019-04-26T22:37:48.040Z,100318.33
2019-04-26T22:40:19.547Z,100317.30
2019-04-26T22:42:46.052Z,100318.94
2019-04-26T22:45:19.495Z,100325.53
2019-04-26T22:48:11.564Z,100320.28
2019-04-26T22:50:38.122Z,100313.27
2019-04-26T22:53:05.640Z,100317.81
2019-04-26T22:55:33.441Z,100319.77
2019-04-26T22:58:06.287Z,100319.91
2019-04-26T23:00:37.980Z,100312.12
2019-04-26T23:03:07.262Z,100315.09
2019-04-26T23:05:39.107Z,100312.68
2019-04-26T23:08:13.573Z,100306.07
2019-04-26T23:10:48.047Z,100316.39
2019-04-26T23:13:47.057Z,100311.90
2019-04-26T23:16:34.455Z,100315.60
2019-04-26T23:19:15.343Z,100313.06
2019-04-26T23:21:52.981Z,100311.87
2019-04-26T23:24:18.948Z,100320.28
2019-04-26T23:26:45.720Z,100318.54
2019-04-26T23:29:18.056Z,100318.36
2019-04-26T23:31:44.681Z,100318.54
2019-04-26T23:34:14.259Z,100321.12
2019-04-26T23:36:43.542Z,100318.64
2019-04-26T23:39:16.603Z,100318.69
2019-04-26T23:41:44.604Z,100314.44
2019-04-26T23:44:13.277Z,100315.66
2019-04-26T23:46:40.583Z,100314.00
2019-04-26T23:49:07.692Z,100313.72
2019-04-26T23:51:38.187Z,100317.42
2019-04-26T23:54:05.178Z,100313.55
2019-04-26T23:56:34.831Z,100311.31
2019-04-26T23:59:04.755Z,100307.96
